»·PEaware :: N112PC KRBG-KMYV

N112PC :: KRBG-KMYV

FLIGHT INFORMATION

Flight Status: Arrived
Operator: Privately registered:
United States
More flights under this callsign
Pilot: Gabor H. (24209)
Aircraft: PILATUS PC-12 EAGLE
(PC12)
More flights by this aircraft type
Origin: KRBG Roseburg Regl
United States
Destination: KMYV Yuba Co
United States
More flights between these airports :: More routes between these airports
Route: RBG V448 OED V23 YUBBA
File this flight plan on PilotEdge
Remarks:
Altitude:
(Current/Filed)
23,000ft
Speed:
(Current/Filed)
250kts
Departed: 21-May-19 11:46 AM
Arrived: 21-May-19 12:54 PM
Distance/Time
Traveled:
261nm/1:07
Distance/Time
To Go:
Arrived

Flight Plot

Page will automatically refresh every two minutes.

Flight plan parsing failed; only flown route is shown


Map Options




Map Legend


Flown Route
Filed Route
Departure Airport
Arrival Airport
Navaid (VOR, NDB)
Fix

Horizontal Profiles

Position Reports

Time Latitude Longitude Heading Altitude Ground
Speed
21-May-19 11:21 43.236440 -123.357440 359 532ft 0kts
21-May-19 11:22 43.236440 -123.357440 359 532ft 0kts
21-May-19 11:23 43.236440 -123.357440 359 532ft 0kts
21-May-19 11:24 43.236440 -123.357440 359 532ft 0kts
21-May-19 11:25 43.236440 -123.357440 359 532ft 0kts
21-May-19 11:26 43.236440 -123.357440 359 532ft 0kts
21-May-19 11:27 43.236440 -123.357440 359 532ft 0kts
21-May-19 11:28 43.236440 -123.357440 359 532ft 0kts
21-May-19 11:29 43.236442 -123.357440 359 532ft 0kts
21-May-19 11:30 43.236878 -123.356776 56 532ft 16kts
21-May-19 11:31 43.238170 -123.356939 4 532ft 0kts
21-May-19 11:32 43.238171 -123.356939 4 532ft 0kts
21-May-19 11:33 43.238171 -123.356939 4 532ft 0kts
21-May-19 11:34 43.238171 -123.356939 4 532ft 0kts
21-May-19 11:35 43.238171 -123.356939 4 532ft 0kts
21-May-19 11:36 43.238172 -123.356939 4 532ft 0kts
21-May-19 11:37 43.238172 -123.356939 4 532ft 0kts
21-May-19 11:38 43.238172 -123.356939 4 532ft 0kts
21-May-19 11:39 43.238172 -123.356939 4 532ft 0kts
21-May-19 11:40 43.238173 -123.356939 4 532ft 0kts
21-May-19 11:41 43.238500 -123.356703 30 532ft 12kts
21-May-19 11:42 43.243186 -123.356694 1 532ft 11kts
21-May-19 11:43 43.244842 -123.356587 43 532ft 0kts
21-May-19 11:44 43.244681 -123.355815 182 532ft 7kts
21-May-19 11:45 43.216911 -123.354978 176 1827ft 135kts
21-May-19 11:46 43.177008 -123.348161 160 3565ft 150kts
21-May-19 11:47 43.135865 -123.323454 158 5303ft 171kts
21-May-19 11:48 43.091050 -123.295360 158 6989ft 180kts
21-May-19 11:49 43.044729 -123.266361 157 8681ft 186kts
21-May-19 11:50 42.996137 -123.235643 157 10388ft 196kts
21-May-19 11:51 42.945673 -123.203919 157 12103ft 210kts
21-May-19 11:52 42.889154 -123.168590 156 13822ft 232kts
21-May-19 11:53 42.829519 -123.131238 156 15450ft 240kts
21-May-19 11:54 42.768294 -123.092726 155 16952ft 243kts
21-May-19 11:55 42.706926 -123.054567 155 18450ft 241kts
21-May-19 11:56 42.646037 -123.016500 155 19950ft 239kts
21-May-19 11:57 42.585129 -122.979203 156 21202ft 244kts
21-May-19 11:58 42.522662 -122.940509 155 22204ft 248kts
21-May-19 11:59 42.456298 -122.913309 173 22819ft 259kts
21-May-19 12:00 42.382520 -122.903941 176 22820ft 271kts
21-May-19 12:01 42.306810 -122.895923 176 22820ft 273kts
21-May-19 12:02 42.231029 -122.887760 176 22818ft 273kts
21-May-19 12:03 42.155111 -122.879945 176 22818ft 274kts
21-May-19 12:04 42.079125 -122.872461 176 22823ft 274kts
21-May-19 12:05 42.003157 -122.864388 176 22829ft 274kts
21-May-19 12:06 41.925601 -122.856231 179 22830ft 284kts
21-May-19 12:07 41.846198 -122.848432 180 22829ft 287kts
21-May-19 12:08 41.766191 -122.840714 180 22830ft 287kts
21-May-19 12:09 41.686318 -122.832593 179 22830ft 288kts
21-May-19 12:10 41.606300 -122.824283 180 22829ft 289kts
21-May-19 12:11 41.526066 -122.815779 180 22828ft 290kts
21-May-19 12:12 41.445835 -122.801777 171 22827ft 294kts
21-May-19 12:13 41.366503 -122.772304 167 22824ft 296kts
21-May-19 12:14 41.287711 -122.739378 166 22823ft 297kts
21-May-19 12:15 41.208666 -122.705692 166 22823ft 299kts
21-May-19 12:16 41.129141 -122.671722 167 22824ft 301kts
21-May-19 12:17 41.049136 -122.637571 167 22827ft 303kts
21-May-19 12:18 40.968220 -122.603062 167 22832ft 306kts
21-May-19 12:19 40.886932 -122.568380 168 22837ft 308kts
21-May-19 12:20 40.804902 -122.533200 168 22846ft 311kts
21-May-19 12:21 40.722034 -122.497887 169 22850ft 315kts
21-May-19 12:22 40.638201 -122.462546 170 22850ft 318kts
21-May-19 12:23 40.553458 -122.427335 170 22850ft 321kts
21-May-19 12:24 40.467804 -122.392334 171 22852ft 323kts
21-May-19 12:26 40.381262 -122.356762 171 22858ft 326kts
21-May-19 12:27 40.294418 -122.320555 172 22873ft 328kts
21-May-19 12:28 40.206350 -122.283688 171 22387ft 341kts
21-May-19 12:29 40.116114 -122.244905 167 20475ft 342kts
21-May-19 12:30 40.029422 -122.202798 162 18591ft 320kts
21-May-19 12:31 39.949421 -122.161136 161 16792ft 300kts
21-May-19 12:32 39.873780 -122.121076 161 14987ft 285kts
21-May-19 12:33 39.802064 -122.082936 161 13188ft 272kts
21-May-19 12:34 39.733648 -122.046904 161 11389ft 261kts
21-May-19 12:35 39.668762 -122.013131 161 9639ft 255kts
21-May-19 12:36 39.603824 -121.980175 161 7841ft 246kts
21-May-19 12:37 39.542828 -121.948494 161 7014ft 227kts
21-May-19 12:38 39.483435 -121.917449 161 7014ft 232kts
21-May-19 12:39 39.436023 -121.865794 106 7029ft 244kts
21-May-19 12:40 39.402789 -121.794157 149 6726ft 240kts
21-May-19 12:41 39.347367 -121.748515 146 6227ft 234kts
21-May-19 12:42 39.300124 -121.702230 145 6014ft 183kts
21-May-19 12:43 39.264286 -121.665864 145 5634ft 165kts
21-May-19 12:44 39.237828 -121.622296 80 4112ft 170kts
21-May-19 12:45 39.278067 -121.592010 21 2642ft 172kts
21-May-19 12:45 39.314129 -121.591714 308 2087ft 165kts
21-May-19 12:47 39.290307 -121.636005 201 1594ft 145kts
21-May-19 12:47 39.259186 -121.650984 188 1598ft 142kts
21-May-19 12:49 39.215777 -121.637181 154 1598ft 138kts
21-May-19 12:50 39.181472 -121.616788 158 1600ft 133kts
21-May-19 12:50 39.152817 -121.600970 158 1145ft 130kts
21-May-19 12:52 39.118540 -121.582205 157 405ft 83kts
21-May-19 12:52 39.103090 -121.573511 156 76ft 62kts
21-May-19 12:53 39.097319 -121.568745 118 65ft 12kts
21-May-19 12:55 39.096418 -121.566888 153 65ft 0kts
21-May-19 12:55 39.096418 -121.566888 153 65ft 0kts

Navigation Log

Ident Type
Flight plan parsing failed, navigation log unavailable